createdAt,value
2022-12-01T00:00:20.650Z,87.35
2022-12-01T00:01:41.693Z,87.44
2022-12-01T00:03:02.934Z,87.42
2022-12-01T00:04:24.066Z,87.52
2022-12-01T00:05:44.917Z,87.46
2022-12-01T00:07:05.786Z,87.47
2022-12-01T00:08:27.990Z,87.34
2022-12-01T00:10:09.038Z,87.36
2022-12-01T00:11:30.337Z,87.40
2022-12-01T00:12:51.473Z,87.37
2022-12-01T00:14:12.455Z,87.50
2022-12-01T00:15:36.750Z,87.04
2022-12-01T00:16:57.611Z,87.17
2022-12-01T00:18:18.513Z,86.69
2022-12-01T00:19:39.713Z,87.44
2022-12-01T00:21:00.950Z,87.18
2022-12-01T00:22:22.480Z,87.29
2022-12-01T00:23:44.370Z,87.25
2022-12-01T00:25:05.605Z,86.51
2022-12-01T00:26:27.175Z,86.68
2022-12-01T00:27:49.949Z,86.94
2022-12-01T00:29:11.162Z,87.42
2022-12-01T00:30:32.017Z,86.95
2022-12-01T00:31:53.085Z,86.58
2022-12-01T00:33:14.391Z,86.76
2022-12-01T00:34:35.582Z,86.90
2022-12-01T00:36:00.768Z,86.65
2022-12-01T00:37:21.517Z,86.45
2022-12-01T00:38:42.441Z,86.04
2022-12-01T00:40:05.260Z,86.03
2022-12-01T00:41:26.316Z,86.58
2022-12-01T00:42:46.976Z,87.26
2022-12-01T00:44:08.185Z,86.95
2022-12-01T00:45:29.423Z,86.68
2022-12-01T00:46:50.414Z,86.92
2022-12-01T00:48:11.488Z,86.92
2022-12-01T00:49:32.615Z,87.42
2022-12-01T00:50:54.459Z,87.53
2022-12-01T00:52:17.515Z,87.34
2022-12-01T00:53:38.753Z,87.86
2022-12-01T00:54:59.699Z,87.63
2022-12-01T00:56:21.210Z,87.66
2022-12-01T00:57:42.395Z,87.61
2022-12-01T00:59:03.599Z,87.24
2022-12-01T01:00:24.847Z,87.21
2022-12-01T01:01:46.496Z,86.92
2022-12-01T01:03:08.028Z,86.76
2022-12-01T01:04:34.454Z,86.62
2022-12-01T01:05:55.764Z,87.63
2022-12-01T01:07:16.887Z,86.66
2022-12-01T01:08:38.388Z,87.18
2022-12-01T01:10:00.225Z,86.95
2022-12-01T01:11:21.413Z,86.53
2022-12-01T01:12:42.576Z,86.97
2022-12-01T01:14:04.155Z,87.17
2022-12-01T01:15:25.249Z,86.41
2022-12-01T01:16:46.062Z,87.37
2022-12-01T01:18:09.725Z,87.18
2022-12-01T01:19:30.690Z,86.67
2022-12-01T01:20:59.011Z,87.72
2022-12-01T01:22:20.313Z,87.04
2022-12-01T01:23:41.427Z,87.70
2022-12-01T01:25:02.731Z,87.56
2022-12-01T01:26:26.360Z,87.92
2022-12-01T01:27:47.415Z,87.35
2022-12-01T01:29:08.603Z,87.72
2022-12-01T01:30:30.000Z,87.55
2022-12-01T01:31:51.189Z,87.85
2022-12-01T01:33:12.546Z,87.19
2022-12-01T01:34:33.371Z,87.89
2022-12-01T01:35:58.202Z,87.61
2022-12-01T01:37:19.451Z,87.73
2022-12-01T01:38:41.038Z,87.54
2022-12-01T01:40:02.176Z,87.11
2022-12-01T01:41:24.272Z,87.68
2022-12-01T01:42:45.254Z,87.58
2022-12-01T01:44:43.863Z,87.27
2022-12-01T01:46:10.270Z,87.79
2022-12-01T01:47:36.927Z,87.64
2022-12-01T01:49:02.122Z,88.02
2022-12-01T01:50:28.211Z,88.07
2022-12-01T01:51:51.770Z,87.60
2022-12-01T01:53:14.982Z,88.31
2022-12-01T01:54:44.411Z,87.95
2022-12-01T01:56:07.351Z,87.72
2022-12-01T01:57:31.892Z,87.71
2022-12-01T01:58:53.485Z,87.69
2022-12-01T02:00:19.126Z,87.11
2022-12-01T02:01:40.107Z,87.41
2022-12-01T02:03:02.525Z,87.15
2022-12-01T02:04:25.185Z,87.63
2022-12-01T02:05:46.568Z,87.45
2022-12-01T02:07:09.093Z,87.27
2022-12-01T02:08:32.061Z,87.60
2022-12-01T02:09:56.204Z,87.18
2022-12-01T02:11:26.075Z,86.91
2022-12-01T02:12:56.416Z,87.61
2022-12-01T02:14:20.363Z,87.50
2022-12-01T02:16:09.642Z,87.33
2022-12-01T02:17:52.436Z,87.65
2022-12-01T02:19:51.294Z,87.80
2022-12-01T02:21:25.195Z,87.88
2022-12-01T02:22:50.712Z,87.75
2022-12-01T02:24:26.497Z,86.90
2022-12-01T02:26:15.878Z,87.05
2022-12-01T02:27:56.906Z,87.60
2022-12-01T02:29:32.909Z,87.92
2022-12-01T02:31:01.553Z,87.95
2022-12-01T02:32:46.839Z,87.21
2022-12-01T02:34:20.042Z,87.76
2022-12-01T02:36:01.815Z,86.91
2022-12-01T02:37:33.367Z,87.39
2022-12-01T02:39:02.089Z,87.54
2022-12-01T02:40:32.694Z,87.11
2022-12-01T02:42:04.070Z,87.58
2022-12-01T02:43:41.002Z,87.16
2022-12-01T02:45:06.041Z,87.39
2022-12-01T02:46:33.272Z,87.12
2022-12-01T02:47:58.460Z,86.94
2022-12-01T02:49:43.002Z,86.89
2022-12-01T02:51:32.288Z,87.54
2022-12-01T02:52:54.430Z,86.96
2022-12-01T02:54:15.963Z,87.32
2022-12-01T02:55:36.688Z,87.13
2022-12-01T02:56:58.090Z,87.22
2022-12-01T02:58:19.374Z,87.25
2022-12-01T02:59:43.500Z,87.38
2022-12-01T03:01:35.497Z,87.05
2022-12-01T03:03:24.587Z,87.12
2022-12-01T03:05:07.414Z,87.54
2022-12-01T03:06:55.707Z,87.27
2022-12-01T03:08:27.062Z,87.13
2022-12-01T03:10:17.595Z,86.93
2022-12-01T03:11:56.774Z,86.55
2022-12-01T03:13:39.112Z,86.66
2022-12-01T03:15:14.737Z,87.39
2022-12-01T03:16:47.369Z,86.82
2022-12-01T03:18:40.763Z,86.18
2022-12-01T03:20:20.060Z,86.34
2022-12-01T03:21:52.879Z,86.52
2022-12-01T03:23:23.233Z,86.90
2022-12-01T03:24:47.698Z,86.62
2022-12-01T03:26:11.896Z,85.87
2022-12-01T03:27:37.789Z,86.16
2022-12-01T03:29:13.566Z,86.95
2022-12-01T03:30:36.908Z,86.63
2022-12-01T03:32:04.971Z,87.41
2022-12-01T03:33:34.373Z,87.60
2022-12-01T03:34:58.610Z,86.78
2022-12-01T03:36:25.922Z,87.02
2022-12-01T03:37:57.247Z,87.23
2022-12-01T03:39:25.465Z,87.18
2022-12-01T03:40:49.933Z,87.92
2022-12-01T03:42:22.669Z,87.36
2022-12-01T03:43:53.549Z,87.71
2022-12-01T03:45:24.605Z,87.43
2022-12-01T03:46:56.179Z,87.10
2022-12-01T03:48:18.097Z,87.53
2022-12-01T03:49:40.661Z,87.36
2022-12-01T03:51:19.903Z,86.81
2022-12-01T03:52:53.566Z,87.45
2022-12-01T03:54:39.539Z,86.83
2022-12-01T03:56:04.573Z,87.51
2022-12-01T03:57:31.889Z,86.83
2022-12-01T03:58:57.010Z,87.10
2022-12-01T04:00:19.887Z,87.00
2022-12-01T04:01:40.830Z,87.51
2022-12-01T04:03:04.177Z,87.56
2022-12-01T04:04:25.274Z,87.25
2022-12-01T04:05:46.850Z,87.83
2022-12-01T04:07:08.095Z,87.26
2022-12-01T04:08:30.739Z,87.97
2022-12-01T04:09:51.886Z,87.61
2022-12-01T04:11:32.957Z,86.76
2022-12-01T04:12:59.216Z,87.16
2022-12-01T04:14:20.202Z,86.33
2022-12-01T04:15:41.364Z,86.69
2022-12-01T04:17:02.270Z,87.21
2022-12-01T04:18:23.508Z,87.19
2022-12-01T04:19:44.523Z,86.82
2022-12-01T04:21:05.860Z,87.10
2022-12-01T04:22:27.718Z,86.84
2022-12-01T04:24:00.919Z,87.53
2022-12-01T04:25:21.816Z,87.46
2022-12-01T04:26:43.567Z,87.03
2022-12-01T04:28:04.712Z,87.24
2022-12-01T04:29:26.191Z,87.35
2022-12-01T04:30:47.602Z,86.81
2022-12-01T04:32:09.118Z,87.66
2022-12-01T04:33:29.981Z,86.72
2022-12-01T04:34:51.100Z,86.55
2022-12-01T04:36:12.411Z,87.33
2022-12-01T04:37:33.749Z,86.96
2022-12-01T04:38:54.705Z,86.59
2022-12-01T04:40:15.798Z,86.10
2022-12-01T04:41:37.038Z,87.10
2022-12-01T04:42:57.792Z,86.52
2022-12-01T04:44:19.024Z,86.67
2022-12-01T04:45:40.118Z,87.28
2022-12-01T04:47:01.513Z,86.96
2022-12-01T04:48:22.582Z,87.40
2022-12-01T04:49:43.676Z,87.13
2022-12-01T04:51:08.986Z,86.82
2022-12-01T04:52:35.070Z,86.44
2022-12-01T04:53:56.481Z,86.90
2022-12-01T04:55:17.550Z,86.12
2022-12-01T04:56:38.654Z,87.24
2022-12-01T04:58:01.369Z,87.42
2022-12-01T04:59:22.709Z,86.26
2022-12-01T05:00:43.766Z,86.84
2022-12-01T05:02:05.056Z,86.49
2022-12-01T05:03:26.054Z,86.59
2022-12-01T05:04:48.248Z,87.13
2022-12-01T05:06:15.322Z,86.44
2022-12-01T05:07:36.518Z,86.81
2022-12-01T05:09:00.103Z,86.94
2022-12-01T05:10:21.421Z,87.65
2022-12-01T05:11:43.015Z,87.36
2022-12-01T05:13:07.013Z,86.96
2022-12-01T05:14:28.132Z,87.50
2022-12-01T05:15:49.180Z,88.15
2022-12-01T05:17:10.232Z,87.55
2022-12-01T05:18:31.305Z,87.22
2022-12-01T05:20:10.934Z,87.21
2022-12-01T05:21:32.068Z,87.32
2022-12-01T05:23:05.462Z,88.00
2022-12-01T05:24:27.285Z,87.44
2022-12-01T05:25:48.291Z,87.75
2022-12-01T05:27:09.519Z,87.96
2022-12-01T05:28:30.807Z,87.86
2022-12-01T05:29:51.927Z,87.54
2022-12-01T05:31:13.203Z,87.33
2022-12-01T05:32:34.260Z,88.27
2022-12-01T05:33:55.487Z,87.82
2022-12-01T05:35:16.774Z,87.81
2022-12-01T05:36:37.828Z,88.58
2022-12-01T05:38:01.920Z,87.99
2022-12-01T05:39:25.658Z,88.08
2022-12-01T05:40:54.710Z,88.52
2022-12-01T05:42:15.954Z,87.72
2022-12-01T05:43:36.956Z,88.62
2022-12-01T05:44:58.426Z,88.37
2022-12-01T05:46:19.771Z,88.26
2022-12-01T05:47:41.001Z,88.25
2022-12-01T05:49:02.186Z,87.38
2022-12-01T05:50:23.952Z,87.88
2022-12-01T05:51:45.033Z,87.32
2022-12-01T05:53:07.453Z,87.60
2022-12-01T05:54:30.753Z,87.11
2022-12-01T05:55:54.335Z,87.47
2022-12-01T05:57:15.292Z,87.86
2022-12-01T05:58:37.965Z,87.24
2022-12-01T05:59:58.985Z,87.53
2022-12-01T06:01:20.457Z,87.20
2022-12-01T06:02:42.521Z,87.96
2022-12-01T06:04:03.895Z,87.33
2022-12-01T06:05:24.807Z,87.35
2022-12-01T06:06:46.030Z,88.18
2022-12-01T06:08:07.611Z,87.36
2022-12-01T06:09:28.923Z,86.70
2022-12-01T06:10:50.088Z,87.19
2022-12-01T06:12:11.140Z,88.14
2022-12-01T06:13:32.219Z,87.69
2022-12-01T06:14:53.477Z,87.89
2022-12-01T06:16:14.735Z,88.32
2022-12-01T06:17:40.235Z,87.75
2022-12-01T06:19:01.700Z,88.49
2022-12-01T06:20:23.519Z,87.28
2022-12-01T06:21:44.788Z,88.12
2022-12-01T06:23:05.695Z,87.69
2022-12-01T06:24:26.465Z,87.93
2022-12-01T06:26:05.818Z,88.29
2022-12-01T06:27:26.879Z,88.24
2022-12-01T06:28:48.115Z,87.81
2022-12-01T06:30:09.716Z,89.13
2022-12-01T06:31:30.963Z,87.88
2022-12-01T06:32:52.326Z,88.74
2022-12-01T06:34:13.633Z,88.77
2022-12-01T06:35:35.860Z,88.64
2022-12-01T06:36:57.142Z,87.99
2022-12-01T06:38:18.293Z,88.81
2022-12-01T06:39:39.508Z,88.00
2022-12-01T06:41:01.575Z,88.28
2022-12-01T06:42:22.804Z,88.34
2022-12-01T06:43:43.684Z,88.63
2022-12-01T06:45:05.623Z,88.67
2022-12-01T06:46:26.645Z,87.50
2022-12-01T06:47:48.518Z,87.85
2022-12-01T06:49:13.401Z,88.11
2022-12-01T06:50:34.350Z,88.01
2022-12-01T06:51:55.665Z,88.89
2022-12-01T06:53:16.959Z,88.29
2022-12-01T06:54:38.011Z,88.13
2022-12-01T06:56:06.016Z,87.70
2022-12-01T06:57:27.419Z,88.30
2022-12-01T06:58:50.524Z,87.38
2022-12-01T07:00:13.610Z,87.64
2022-12-01T07:01:35.162Z,87.30
2022-12-01T07:02:56.316Z,87.67
2022-12-01T07:04:17.382Z,87.93
2022-12-01T07:05:38.418Z,87.86
2022-12-01T07:06:59.518Z,87.83
2022-12-01T07:08:20.595Z,87.28
2022-12-01T07:09:41.510Z,87.78
2022-12-01T07:11:08.315Z,87.90
2022-12-01T07:12:32.665Z,88.06
2022-12-01T07:13:56.522Z,88.11
2022-12-01T07:15:17.864Z,87.77
2022-12-01T07:16:39.123Z,88.88
2022-12-01T07:18:00.267Z,88.16
2022-12-01T07:19:21.227Z,88.74
2022-12-01T07:20:42.426Z,88.59
2022-12-01T07:22:03.506Z,88.19
2022-12-01T07:23:24.588Z,88.15
2022-12-01T07:24:45.693Z,88.31
2022-12-01T07:26:11.256Z,87.60
2022-12-01T07:27:32.555Z,88.85
2022-12-01T07:28:53.404Z,88.02
2022-12-01T07:30:14.765Z,88.07
2022-12-01T07:31:36.927Z,87.79
2022-12-01T07:32:58.186Z,88.47
2022-12-01T07:34:19.590Z,87.73
2022-12-01T07:35:40.699Z,88.52
2022-12-01T07:37:01.666Z,88.43
2022-12-01T07:38:22.830Z,88.10
2022-12-01T07:39:43.742Z,88.31
2022-12-01T07:41:09.803Z,88.40
2022-12-01T07:42:30.980Z,88.16
2022-12-01T07:43:52.188Z,88.40
2022-12-01T07:45:13.587Z,88.13
2022-12-01T07:46:34.860Z,88.77
2022-12-01T07:47:56.195Z,88.47
2022-12-01T07:49:17.322Z,87.83
2022-12-01T07:50:38.615Z,87.77
2022-12-01T07:51:59.856Z,87.55
2022-12-01T07:53:24.162Z,87.66
2022-12-01T07:54:45.277Z,88.00
2022-12-01T07:56:08.815Z,87.21
2022-12-01T07:57:29.943Z,87.51
2022-12-01T07:58:51.590Z,87.54
2022-12-01T08:00:13.536Z,87.48
2022-12-01T08:01:34.853Z,87.67
2022-12-01T08:02:56.172Z,87.60
2022-12-01T08:04:17.685Z,87.33
2022-12-01T08:05:38.943Z,87.51
2022-12-01T08:07:00.042Z,87.43
2022-12-01T08:08:21.363Z,87.38
2022-12-01T08:09:42.757Z,86.80
2022-12-01T08:11:07.407Z,86.54
2022-12-01T08:12:28.418Z,86.65
2022-12-01T08:13:50.501Z,87.52
2022-12-01T08:15:11.575Z,86.43
2022-12-01T08:16:32.829Z,87.20
2022-12-01T08:17:54.165Z,86.67
2022-12-01T08:19:15.362Z,87.44
2022-12-01T08:20:36.406Z,86.80
2022-12-01T08:21:57.542Z,86.99
2022-12-01T08:23:20.838Z,87.02
2022-12-01T08:24:42.045Z,87.35
2022-12-01T08:26:05.466Z,86.75
2022-12-01T08:27:26.551Z,87.59
2022-12-01T08:28:48.377Z,86.78
2022-12-01T08:30:10.012Z,87.04
2022-12-01T08:31:35.703Z,86.88
2022-12-01T08:32:58.054Z,87.21
2022-12-01T08:34:19.251Z,87.52
2022-12-01T08:35:40.493Z,86.95
2022-12-01T08:37:01.701Z,86.67
2022-12-01T08:38:23.025Z,86.85
2022-12-01T08:39:44.605Z,87.04
2022-12-01T08:41:09.392Z,86.99
2022-12-01T08:42:30.661Z,86.51
2022-12-01T08:44:00.788Z,86.14
2022-12-01T08:45:23.219Z,86.11
2022-12-01T08:46:44.395Z,86.73
2022-12-01T08:48:05.709Z,87.07
2022-12-01T08:49:26.654Z,87.04
2022-12-01T08:50:47.970Z,86.66
2022-12-01T08:52:09.317Z,87.21
2022-12-01T08:53:31.507Z,86.06
2022-12-01T08:54:52.829Z,86.82
2022-12-01T08:56:23.062Z,86.41
2022-12-01T08:57:43.942Z,85.95
2022-12-01T08:59:05.238Z,86.52
2022-12-01T09:00:26.411Z,86.56
2022-12-01T09:01:54.044Z,85.79
2022-12-01T09:03:14.946Z,86.29
2022-12-01T09:04:36.080Z,85.84
2022-12-01T09:06:05.306Z,85.46
2022-12-01T09:07:28.138Z,85.18
2022-12-01T09:08:49.519Z,85.93
2022-12-01T09:10:10.993Z,85.95
2022-12-01T09:11:31.926Z,85.32
2022-12-01T09:12:53.121Z,85.43
2022-12-01T09:14:16.152Z,85.28
2022-12-01T09:15:37.319Z,84.96
2022-12-01T09:16:58.481Z,85.19
2022-12-01T09:18:19.612Z,84.92
2022-12-01T09:19:40.765Z,84.63
2022-12-01T09:21:19.873Z,84.51
2022-12-01T09:22:41.069Z,85.31
2022-12-01T09:24:03.020Z,84.93
2022-12-01T09:25:23.940Z,85.40
2022-12-01T09:26:45.374Z,84.91
2022-12-01T09:28:07.772Z,84.56
2022-12-01T09:29:29.323Z,85.27
2022-12-01T09:30:50.397Z,84.70
2022-12-01T09:32:11.438Z,84.86
2022-12-01T09:33:33.267Z,85.56
2022-12-01T09:34:54.183Z,85.64
2022-12-01T09:36:15.533Z,85.68
2022-12-01T09:37:36.371Z,85.32
2022-12-01T09:38:58.181Z,85.49
2022-12-01T09:40:19.346Z,84.87
2022-12-01T09:41:49.981Z,84.80
2022-12-01T09:43:21.716Z,85.17
2022-12-01T09:44:51.616Z,84.36
2022-12-01T09:46:33.442Z,84.40
2022-12-01T09:47:59.487Z,84.90
2022-12-01T09:49:35.908Z,84.62
2022-12-01T09:50:57.051Z,84.43
2022-12-01T09:52:20.062Z,84.54
2022-12-01T09:53:41.667Z,84.07
2022-12-01T09:55:02.906Z,83.73
2022-12-01T09:56:26.916Z,83.55
2022-12-01T09:57:51.033Z,84.22
2022-12-01T09:59:19.760Z,83.62
2022-12-01T10:00:43.904Z,83.88
2022-12-01T10:02:24.346Z,84.53
2022-12-01T10:03:55.128Z,84.41
2022-12-01T10:05:22.027Z,84.38
2022-12-01T10:06:54.371Z,83.49
2022-12-01T10:08:25.359Z,84.12
2022-12-01T10:10:01.333Z,84.37
2022-12-01T10:11:28.221Z,83.95
2022-12-01T10:12:49.235Z,84.67
2022-12-01T10:14:20.326Z,83.78
2022-12-01T10:15:51.551Z,84.61
2022-12-01T10:17:18.270Z,85.09
2022-12-01T10:19:01.811Z,84.79
2022-12-01T10:20:41.181Z,84.74
2022-12-01T10:22:17.509Z,84.47
2022-12-01T10:23:58.627Z,84.67
2022-12-01T10:25:22.682Z,85.72
2022-12-01T10:27:04.099Z,85.60
2022-12-01T10:28:46.531Z,85.44
2022-12-01T10:30:10.801Z,84.63
2022-12-01T10:31:32.662Z,85.24
2022-12-01T10:33:05.422Z,84.58
2022-12-01T10:34:47.492Z,85.28
2022-12-01T10:36:10.581Z,85.06
2022-12-01T10:37:31.874Z,84.87
2022-12-01T10:38:52.854Z,84.50
2022-12-01T10:40:16.267Z,85.25
2022-12-01T10:41:39.303Z,85.42
2022-12-01T10:43:01.168Z,85.35
2022-12-01T10:44:21.978Z,84.61
2022-12-01T10:45:45.316Z,85.22
2022-12-01T10:47:18.416Z,84.52
2022-12-01T10:48:56.612Z,85.34
2022-12-01T10:50:28.153Z,84.26
2022-12-01T10:51:56.150Z,84.69
2022-12-01T10:53:23.047Z,84.31
2022-12-01T10:54:44.114Z,84.97
2022-12-01T10:56:18.332Z,83.87
2022-12-01T10:57:44.944Z,84.59
2022-12-01T10:59:36.294Z,84.53
2022-12-01T11:01:01.386Z,84.75
2022-12-01T11:02:26.254Z,84.78
2022-12-01T11:04:21.024Z,84.73
2022-12-01T11:05:42.596Z,85.38
2022-12-01T11:07:04.610Z,85.14
2022-12-01T11:08:43.409Z,84.86
2022-12-01T11:10:24.730Z,85.50
2022-12-01T11:11:45.814Z,85.18
2022-12-01T11:13:22.611Z,85.37
2022-12-01T11:14:47.815Z,85.08
2022-12-01T11:16:34.752Z,85.84
2022-12-01T11:18:21.695Z,85.86
2022-12-01T11:19:42.947Z,85.34
2022-12-01T11:21:12.738Z,85.21
2022-12-01T11:22:33.686Z,85.16
2022-12-01T11:23:56.235Z,84.50
2022-12-01T11:25:21.929Z,85.13
2022-12-01T11:26:43.146Z,84.74
2022-12-01T11:28:06.128Z,85.14
2022-12-01T11:29:36.212Z,85.36
2022-12-01T11:31:01.518Z,84.29
2022-12-01T11:32:26.202Z,84.21
2022-12-01T11:33:51.873Z,85.06
2022-12-01T11:35:12.839Z,84.71
2022-12-01T11:36:38.918Z,84.65
2022-12-01T11:39:48.405Z,84.24
2022-12-01T11:41:43.459Z,83.70
2022-12-01T11:43:06.736Z,83.73
2022-12-01T11:44:50.392Z,83.49
2022-12-01T11:46:10.658Z,83.61
2022-12-01T11:47:31.590Z,84.00
2022-12-01T11:48:58.806Z,83.77
2022-12-01T11:50:27.646Z,82.73
2022-12-01T11:51:48.978Z,83.27
2022-12-01T11:53:30.441Z,83.01
2022-12-01T11:55:23.604Z,83.18
2022-12-01T11:56:46.707Z,83.55
2022-12-01T11:58:08.636Z,83.10
2022-12-01T11:59:29.813Z,83.05
2022-12-01T12:00:57.646Z,83.37
2022-12-01T12:02:41.314Z,83.04
2022-12-01T12:04:24.104Z,83.31
2022-12-01T12:06:39.402Z,83.10
2022-12-01T12:08:09.178Z,83.02
2022-12-01T12:09:39.004Z,82.69
2022-12-01T12:11:28.571Z,82.50
2022-12-01T12:12:58.695Z,83.42
2022-12-01T12:14:29.929Z,83.28
2022-12-01T12:16:05.663Z,83.45
2022-12-01T12:17:34.603Z,83.52
2022-12-01T12:19:39.261Z,83.10
2022-12-01T12:21:17.453Z,83.39
2022-12-01T12:22:44.333Z,83.46
2022-12-01T12:24:42.618Z,82.88
2022-12-01T12:26:14.417Z,82.48
2022-12-01T12:28:18.473Z,82.53
2022-12-01T12:29:48.808Z,82.78
2022-12-01T12:31:16.292Z,83.44
2022-12-01T12:32:49.588Z,82.96
2022-12-01T12:34:36.199Z,83.50
2022-12-01T12:36:03.257Z,83.37
2022-12-01T12:37:45.922Z,83.11
2022-12-01T12:39:37.935Z,83.33
2022-12-01T12:41:21.641Z,83.05
2022-12-01T12:43:06.701Z,83.23
2022-12-01T12:44:51.756Z,83.46
2022-12-01T12:46:34.119Z,83.06
2022-12-01T12:48:57.338Z,83.18
2022-12-01T12:50:31.927Z,83.18
2022-12-01T12:52:08.138Z,83.54
2022-12-01T12:53:44.881Z,83.25
2022-12-01T12:55:21.224Z,83.86
2022-12-01T12:56:46.590Z,83.48
2022-12-01T12:58:38.958Z,84.10
2022-12-01T13:00:13.697Z,83.81
2022-12-01T13:01:39.808Z,83.98
2022-12-01T13:03:19.474Z,83.47
2022-12-01T13:04:54.187Z,83.61
2022-12-01T13:06:21.116Z,84.22
2022-12-01T13:07:59.926Z,84.08
2022-12-01T13:09:27.939Z,83.95
2022-12-01T13:10:57.372Z,84.09
2022-12-01T13:12:32.528Z,83.64
2022-12-01T13:14:06.576Z,84.24
2022-12-01T13:15:30.711Z,83.91
2022-12-01T13:16:56.639Z,84.07
2022-12-01T13:18:33.568Z,84.06
2022-12-01T13:19:54.789Z,84.22
2022-12-01T13:21:20.408Z,84.25
2022-12-01T13:22:42.138Z,84.31
2022-12-01T13:24:05.208Z,85.04
2022-12-01T13:25:33.994Z,84.19
2022-12-01T13:27:01.009Z,84.56
2022-12-01T13:28:27.862Z,84.71
2022-12-01T13:29:52.465Z,84.78
2022-12-01T13:31:15.918Z,84.92
2022-12-01T13:32:43.177Z,84.65
2022-12-01T13:34:06.188Z,84.29
2022-12-01T13:35:29.938Z,84.63
2022-12-01T13:36:53.063Z,84.16
2022-12-01T13:38:26.382Z,84.09
2022-12-01T13:39:47.547Z,84.13
2022-12-01T13:41:18.222Z,83.89
2022-12-01T13:42:39.973Z,83.98
2022-12-01T13:44:08.346Z,84.52
2022-12-01T13:45:34.196Z,84.33
2022-12-01T13:47:03.825Z,84.15
2022-12-01T13:48:37.007Z,83.58
2022-12-01T13:50:17.773Z,84.70
2022-12-01T13:52:16.572Z,84.49
2022-12-01T13:53:56.014Z,84.08
2022-12-01T13:55:28.096Z,83.46
2022-12-01T13:57:03.021Z,83.31
2022-12-01T13:58:45.785Z,83.84
2022-12-01T14:00:29.038Z,83.16
2022-12-01T14:02:13.399Z,83.70
2022-12-01T14:03:40.260Z,83.26
2022-12-01T14:05:23.095Z,83.41
2022-12-01T14:06:49.621Z,83.59
2022-12-01T14:08:21.277Z,83.34
2022-12-01T14:09:44.201Z,83.87
2022-12-01T14:11:17.570Z,83.41
2022-12-01T14:12:41.881Z,83.16
2022-12-01T14:14:08.894Z,83.55
2022-12-01T14:15:31.886Z,82.95
2022-12-01T14:16:55.596Z,83.08
2022-12-01T14:18:33.197Z,83.08
2022-12-01T14:19:55.812Z,83.03
2022-12-01T14:21:41.547Z,83.27
2022-12-01T14:23:13.346Z,83.03
2022-12-01T14:24:40.511Z,82.38
2022-12-01T14:26:05.382Z,83.09
2022-12-01T14:27:43.520Z,83.17
2022-12-01T14:29:09.366Z,83.12
2022-12-01T14:30:47.002Z,83.46
2022-12-01T14:32:08.341Z,83.35
2022-12-01T14:33:53.765Z,83.28
2022-12-01T14:35:15.453Z,83.86
2022-12-01T14:36:36.134Z,83.86
2022-12-01T14:37:58.121Z,84.21
2022-12-01T14:39:23.268Z,84.14
2022-12-01T14:40:44.313Z,84.29
2022-12-01T14:42:54.060Z,84.82
2022-12-01T14:44:21.419Z,84.83
2022-12-01T14:46:08.766Z,85.18
2022-12-01T14:47:43.616Z,84.84
2022-12-01T14:49:05.805Z,85.20
2022-12-01T14:51:16.379Z,84.71
2022-12-01T14:52:45.295Z,85.25
2022-12-01T14:54:14.389Z,84.83
2022-12-01T14:55:42.843Z,84.75
2022-12-01T14:57:07.501Z,84.56
2022-12-01T14:58:31.406Z,85.42
2022-12-01T15:00:16.866Z,85.98
2022-12-01T15:01:38.320Z,86.57
2022-12-01T15:03:06.790Z,87.40
2022-12-01T15:04:27.661Z,86.84
2022-12-01T15:05:49.137Z,87.10
2022-12-01T15:07:12.121Z,87.74
2022-12-01T15:10:39.976Z,88.02
2022-12-01T15:12:04.844Z,87.73
2022-12-01T15:13:30.594Z,87.03
2022-12-01T15:14:52.305Z,87.37
2022-12-01T15:16:20.216Z,86.73
2022-12-01T15:17:42.374Z,86.87
2022-12-01T15:19:22.893Z,86.68
2022-12-01T15:20:47.821Z,87.26
2022-12-01T15:22:15.742Z,86.04
2022-12-01T15:24:04.710Z,86.09
2022-12-01T15:25:30.039Z,86.47
2022-12-01T15:26:56.800Z,86.10
2022-12-01T15:28:29.399Z,85.58
2022-12-01T15:29:50.942Z,85.34
2022-12-01T15:31:13.724Z,85.26
2022-12-01T15:32:39.684Z,85.67
2022-12-01T15:34:01.068Z,86.04
2022-12-01T15:35:23.686Z,85.79
2022-12-01T15:36:45.563Z,85.71
2022-12-01T15:38:12.568Z,84.93
2022-12-01T15:39:37.134Z,85.52
2022-12-01T15:41:27.934Z,85.61
2022-12-01T15:42:41.266Z,85.81
2022-12-01T15:44:03.731Z,85.63
2022-12-01T15:45:25.324Z,86.08
2022-12-01T15:46:47.094Z,85.89
2022-12-01T15:48:16.823Z,85.72
2022-12-01T15:49:49.202Z,86.00
2022-12-01T15:51:25.873Z,85.07
2022-12-01T15:52:49.029Z,84.82
2022-12-01T15:54:19.593Z,85.20
2022-12-01T15:55:40.712Z,85.36
2022-12-01T15:57:03.504Z,85.15
2022-12-01T15:58:30.335Z,85.34
2022-12-01T15:59:55.259Z,85.14
2022-12-01T16:01:20.940Z,85.88
2022-12-01T16:02:42.422Z,85.58
2022-12-01T16:04:17.455Z,85.82
2022-12-01T16:05:38.524Z,85.82
2022-12-01T16:07:05.724Z,86.23
2022-12-01T16:08:28.373Z,85.65
2022-12-01T16:09:58.090Z,85.87
2022-12-01T16:11:21.594Z,86.02
2022-12-01T16:12:42.492Z,86.44
2022-12-01T16:14:26.836Z,86.35
2022-12-01T16:15:47.796Z,85.90
2022-12-01T16:17:11.223Z,86.45
2022-12-01T16:18:33.148Z,85.99
2022-12-01T16:20:22.939Z,86.30
2022-12-01T16:21:48.207Z,85.99
2022-12-01T16:23:19.556Z,86.43
2022-12-01T16:24:53.769Z,86.83
2022-12-01T16:26:15.288Z,86.23
2022-12-01T16:27:38.026Z,86.76
2022-12-01T16:28:59.552Z,86.57
2022-12-01T16:30:23.999Z,86.57
2022-12-01T16:32:05.466Z,87.20
2022-12-01T16:33:28.607Z,87.19
2022-12-01T16:34:52.645Z,87.05
2022-12-01T16:36:17.065Z,86.92
2022-12-01T16:37:38.468Z,87.33
2022-12-01T16:38:59.280Z,87.35
2022-12-01T16:40:20.202Z,87.25
2022-12-01T16:41:44.812Z,87.49
2022-12-01T16:43:09.945Z,87.43
2022-12-01T16:44:31.281Z,87.17
2022-12-01T16:46:03.985Z,87.38
2022-12-01T16:47:25.724Z,87.03
2022-12-01T16:48:47.250Z,86.78
2022-12-01T16:50:22.198Z,87.19
2022-12-01T16:51:55.428Z,87.06
2022-12-01T16:53:17.927Z,87.49
2022-12-01T16:54:40.370Z,87.79
2022-12-01T16:56:02.395Z,87.26
2022-12-01T16:57:23.770Z,87.28
2022-12-01T16:58:45.210Z,87.32
2022-12-01T17:00:07.170Z,87.24
2022-12-01T17:01:29.575Z,87.18
2022-12-01T17:02:50.917Z,87.33
2022-12-01T17:04:11.784Z,86.87
2022-12-01T17:05:34.479Z,87.07
2022-12-01T17:06:55.534Z,86.46
2022-12-01T17:08:17.036Z,86.40
2022-12-01T17:09:38.153Z,86.37
2022-12-01T17:10:59.492Z,86.96
2022-12-01T17:12:25.212Z,87.22
2022-12-01T17:13:46.228Z,87.04
2022-12-01T17:15:08.354Z,86.76
2022-12-01T17:16:29.634Z,86.75
2022-12-01T17:17:51.499Z,87.26
2022-12-01T17:19:12.792Z,86.94
2022-12-01T17:20:34.268Z,86.60
2022-12-01T17:21:57.252Z,87.10
2022-12-01T17:23:18.341Z,86.73
2022-12-01T17:24:39.937Z,87.15
2022-12-01T17:26:01.336Z,86.64
2022-12-01T17:27:24.606Z,86.98
2022-12-01T17:28:46.209Z,86.98
2022-12-01T17:30:08.036Z,86.45
2022-12-01T17:31:29.146Z,86.41
2022-12-01T17:32:50.290Z,86.94
2022-12-01T17:34:11.780Z,86.71
2022-12-01T17:35:32.704Z,86.67
2022-12-01T17:36:53.510Z,86.15
2022-12-01T17:38:14.788Z,86.49
2022-12-01T17:39:35.937Z,86.01
2022-12-01T17:41:07.748Z,86.31
2022-12-01T17:42:31.793Z,86.68
2022-12-01T17:43:59.793Z,86.37
2022-12-01T17:45:21.837Z,86.30
2022-12-01T17:46:42.916Z,87.65
2022-12-01T17:48:04.409Z,86.82
2022-12-01T17:49:25.456Z,86.50
2022-12-01T17:50:46.350Z,86.44
2022-12-01T17:52:08.658Z,86.32
2022-12-01T17:53:29.611Z,86.98
2022-12-01T17:54:51.017Z,86.90
2022-12-01T17:56:16.081Z,86.97
2022-12-01T17:57:37.175Z,86.58
2022-12-01T17:58:58.315Z,87.09
2022-12-01T18:00:27.728Z,87.16
2022-12-01T18:01:49.022Z,86.64
2022-12-01T18:03:10.033Z,87.05
2022-12-01T18:04:31.997Z,86.72
2022-12-01T18:05:58.241Z,86.64
2022-12-01T18:07:20.565Z,87.17
2022-12-01T18:08:42.690Z,86.56
2022-12-01T18:10:04.058Z,87.10
2022-12-01T18:11:25.225Z,86.63
2022-12-01T18:12:47.653Z,86.96
2022-12-01T18:14:09.317Z,87.17
2022-12-01T18:15:34.594Z,87.00
2022-12-01T18:16:55.681Z,86.51
2022-12-01T18:18:16.884Z,86.83
2022-12-01T18:19:38.188Z,86.75
2022-12-01T18:20:59.656Z,86.20
2022-12-01T18:22:20.877Z,86.67
2022-12-01T18:23:42.728Z,86.70
2022-12-01T18:25:07.608Z,86.41
2022-12-01T18:26:29.404Z,86.13
2022-12-01T18:27:53.370Z,86.12
2022-12-01T18:29:26.002Z,86.41
2022-12-01T18:30:49.614Z,86.78
2022-12-01T18:32:11.101Z,86.44
2022-12-01T18:33:34.173Z,86.71
2022-12-01T18:34:55.038Z,86.00
2022-12-01T18:36:26.292Z,86.36